PWSweather.com
Personal Weather Stations
Station Observations
IONTARIO88
Lincoln, ON L0R

Lincoln, ON L0R

Lat: 43.1763563, Lon: -79.4719525

Elevation: 297

Station Type: Davis Vantage Pro 2 Plus

http://www.beamsvillewx.ca

High Low Average
Temperature 21.6°F-5.8°C 12.0°F-11.1°C 18.1°F-7.7°C
Dew Point 17.7°F-7.9°C 7.8°F-13.4°C 12.1°F-11.1°C
Winds 12.0 mph 19.3 kmh 2.0 mph 3.2 kmh 7.0 mph W11.3 kmh W
Wind Gusts 23.0 mph37.0 kmh 6.0 mph9.7 kmh 15.0 mph24.1 kmh
Humidity 91% 65% 77%
Pressure 30.26 in1024.7 mb 29.89 in1012.2 mb -
Precipitation 0.01 in0.3 mm - -
Hour Temp Dew Point Humidity Winds Wind Gusts Pressure Precip Precip Rate Daily Precip Total
12:00 AM 20.5°F-6.4°C 18.3°F-7.6°C 91% 11.0 mph NNW17.7 kmh NNW 22.0 mph35.4 kmh 29.85 in1010.8 mb 0.01 in0.3 mm 0.00 in0.0 mm 0.25 in6.4 mm
12:15 AM 20.1°F-6.6°C 17.9°F-7.8°C 91% 12.0 mph NNW19.3 kmh NNW 23.0 mph37.0 kmh 29.86 in1011.2 mb 0.02 in0.5 mm 0.04 in1.0 mm 0.26 in6.6 mm
12:30 AM 19.9°F-6.7°C 17.7°F-7.9°C 91% 12.0 mph NNW19.3 kmh NNW 24.0 mph38.6 kmh 29.87 in1011.5 mb 0.01 in0.3 mm 0.00 in0.0 mm 0.26 in6.6 mm
12:45 AM 19.9°F-6.7°C 17.7°F-7.9°C 91% 11.0 mph NNW17.7 kmh NNW 20.0 mph32.2 kmh 29.88 in1011.9 mb 0.01 in0.3 mm 0.00 in0.0 mm 0.26 in6.6 mm
01:00 AM 19.9°F-6.7°C 17.7°F-7.9°C 91% 11.0 mph NNW17.7 kmh NNW 22.0 mph35.4 kmh 29.89 in1012.2 mb 0.01 in0.3 mm 0.00 in0.0 mm 0.02 in0.5 mm
01:15 AM 19.8°F-6.8°C 17.6°F-8.0°C 91% 10.0 mph NW16.1 kmh NW 18.0 mph29.0 kmh 29.90 in1012.5 mb 0.00 in0.0 mm 0.00 in0.0 mm 0.02 in0.5 mm
01:30 AM 19.4°F-7.0°C 17.2°F-8.2°C 91% 9.0 mph NW14.5 kmh NW 22.0 mph35.4 kmh 29.91 in1012.9 mb 0.00 in0.0 mm 0.00 in0.0 mm 0.02 in0.5 mm
01:45 AM 19.0°F-7.2°C 16.6°F-8.6°C 90% 12.0 mph NW19.3 kmh NW 20.0 mph32.2 kmh 29.92 in1013.2 mb 0.00 in0.0 mm 0.00 in0.0 mm 0.02 in0.5 mm
02:00 AM 19.0°F-7.2°C 16.6°F-8.6°C 90% 9.0 mph NW14.5 kmh NW 22.0 mph35.4 kmh 29.93 in1013.5 mb 0.00 in0.0 mm 0.00 in0.0 mm 0.02 in0.5 mm
02:15 AM 19.0°F-7.2°C 16.1°F-8.8°C 88% 10.0 mph NW16.1 kmh NW 21.0 mph33.8 kmh 29.94 in1013.9 mb 0.00 in0.0 mm 0.00 in0.0 mm 0.02 in0.5 mm
02:30 AM 18.9°F-7.3°C 15.4°F-9.2°C 86% 11.0 mph NW17.7 kmh NW 20.0 mph32.2 kmh 29.96 in1014.6 mb 0.00 in0.0 mm 0.00 in0.0 mm 0.02 in0.5 mm
02:45 AM 18.7°F-7.4°C 14.6°F-9.7°C 84% 11.0 mph NW17.7 kmh NW 21.0 mph33.8 kmh 29.97 in1014.9 mb 0.00 in0.0 mm 0.00 in0.0 mm 0.02 in0.5 mm
03:00 AM 18.1°F-7.7°C 13.3°F-10.4°C 81% 12.0 mph NW19.3 kmh NW 22.0 mph35.4 kmh 29.98 in1015.2 mb 0.00 in0.0 mm 0.00 in0.0 mm 0.02 in0.5 mm
03:15 AM 18.0°F-7.8°C 13.4°F-10.3°C 82% 11.0 mph NW17.7 kmh NW 23.0 mph37.0 kmh 29.99 in1015.6 mb 0.00 in0.0 mm 0.00 in0.0 mm 0.02 in0.5 mm
03:30 AM 17.4°F-8.1°C 12.6°F-10.8°C 81% 12.0 mph NW19.3 kmh NW 21.0 mph33.8 kmh 29.99 in1015.6 mb 0.00 in0.0 mm 0.00 in0.0 mm 0.02 in0.5 mm
03:45 AM 17.1°F-8.3°C 12.5°F-10.8°C 82% 11.0 mph NW17.7 kmh NW 21.0 mph33.8 kmh 30.00 in1015.9 mb 0.00 in0.0 mm 0.00 in0.0 mm 0.02 in0.5 mm
04:00 AM 16.9°F-8.4°C 12.1°F-11.1°C 81% 11.0 mph NW17.7 kmh NW 17.0 mph27.4 kmh 30.01 in1016.3 mb 0.00 in0.0 mm 0.00 in0.0 mm 0.02 in0.5 mm
04:15 AM 16.5°F-8.6°C 11.7°F-11.3°C 81% 9.0 mph NW14.5 kmh NW 17.0 mph27.4 kmh 30.02 in1016.6 mb 0.00 in0.0 mm 0.00 in0.0 mm 0.02 in0.5 mm
04:30 AM 16.3°F-8.7°C 11.3°F-11.5°C 80% 11.0 mph NW17.7 kmh NW 20.0 mph32.2 kmh 30.02 in1016.6 mb 0.00 in0.0 mm 0.00 in0.0 mm 0.02 in0.5 mm
04:45 AM 16.0°F-8.9°C 11.2°F-11.6°C 81% 9.0 mph NW14.5 kmh NW 17.0 mph27.4 kmh 30.04 in1017.3 mb 0.00 in0.0 mm 0.00 in0.0 mm 0.02 in0.5 mm
05:00 AM 15.1°F-9.4°C 10.6°F-11.9°C 82% 5.0 mph WNW8.0 kmh WNW 10.0 mph16.1 kmh 30.05 in1017.6 mb 0.00 in0.0 mm 0.00 in0.0 mm 0.02 in0.5 mm
05:15 AM 15.3°F-9.3°C 11.0°F-11.7°C 83% 7.0 mph NW11.3 kmh NW 12.0 mph19.3 kmh 30.05 in1017.6 mb 0.00 in0.0 mm 0.00 in0.0 mm 0.02 in0.5 mm
05:30 AM 14.5°F-9.7°C 10.0°F-12.2°C 82% 6.0 mph WNW9.7 kmh WNW 10.0 mph16.1 kmh 30.07 in1018.3 mb 0.00 in0.0 mm 0.00 in0.0 mm 0.02 in0.5 mm
05:45 AM 14.5°F-9.7°C 10.0°F-12.2°C 82% 8.0 mph NW12.9 kmh NW 15.0 mph24.1 kmh 30.08 in1018.6 mb 0.00 in0.0 mm 0.00 in0.0 mm 0.02 in0.5 mm
06:00 AM 14.5°F-9.7°C 9.8°F-12.3°C 81% 9.0 mph NW14.5 kmh NW 17.0 mph27.4 kmh 30.09 in1019.0 mb 0.00 in0.0 mm 0.00 in0.0 mm 0.02 in0.5 mm
06:15 AM 14.5°F-9.7°C 9.8°F-12.3°C 81% 9.0 mph NNW14.5 kmh NNW 17.0 mph27.4 kmh 30.10 in1019.3 mb 0.00 in0.0 mm 0.00 in0.0 mm 0.02 in0.5 mm
06:30 AM 14.5°F-9.7°C 9.8°F-12.3°C 81% 7.0 mph NW11.3 kmh NW 13.0 mph20.9 kmh 30.11 in1019.6 mb 0.00 in0.0 mm 0.00 in0.0 mm 0.02 in0.5 mm
06:45 AM 13.8°F-10.1°C 9.1°F-12.7°C 81% 6.0 mph NW9.7 kmh NW 13.0 mph20.9 kmh 30.12 in1020.0 mb 0.00 in0.0 mm 0.00 in0.0 mm 0.02 in0.5 mm
07:00 AM 13.5°F-10.3°C 9.0°F-12.8°C 82% 3.0 mph NW4.8 kmh NW 9.0 mph14.5 kmh 30.13 in1020.3 mb 0.00 in0.0 mm 0.00 in0.0 mm 0.02 in0.5 mm
07:15 AM 12.2°F-11.0°C 7.8°F-13.4°C 82% 3.0 mph NW4.8 kmh NW 6.0 mph9.7 kmh 30.14 in1020.7 mb 0.00 in0.0 mm 0.00 in0.0 mm 0.02 in0.5 mm
07:30 AM 12.0°F-11.1°C 7.8°F-13.4°C 83% 4.0 mph W6.4 kmh W 7.0 mph11.3 kmh 30.15 in1021.0 mb 0.00 in0.0 mm 0.00 in0.0 mm 0.02 in0.5 mm
07:45 AM 12.2°F-11.0°C 7.8°F-13.4°C 82% 5.0 mph W8.0 kmh W 10.0 mph16.1 kmh 30.15 in1021.0 mb 0.00 in0.0 mm 0.00 in0.0 mm 0.02 in0.5 mm
08:00 AM 12.4°F-10.9°C 7.9°F-13.4°C 82% 5.0 mph W8.0 kmh W 9.0 mph14.5 kmh 30.16 in1021.3 mb 0.00 in0.0 mm 0.00 in0.0 mm 0.02 in0.5 mm
08:15 AM 12.6°F-10.8°C 8.4°F-13.1°C 83% 3.0 mph W4.8 kmh W 8.0 mph12.9 kmh 30.16 in1021.3 mb 0.00 in0.0 mm 0.00 in0.0 mm 0.02 in0.5 mm
08:30 AM 12.7°F-10.7°C 8.6°F-13.0°C 83% 3.0 mph W4.8 kmh W 6.0 mph9.7 kmh 30.16 in1021.3 mb 0.00 in0.0 mm 0.00 in0.0 mm 0.02 in0.5 mm
08:45 AM 12.9°F-10.6°C 8.7°F-12.9°C 83% 2.0 mph W3.2 kmh W 6.0 mph9.7 kmh 30.17 in1021.7 mb 0.00 in0.0 mm 0.00 in0.0 mm 0.02 in0.5 mm
09:00 AM 13.5°F-10.3°C 9.3°F-12.6°C 83% 2.0 mph W3.2 kmh W 7.0 mph11.3 kmh 30.18 in1022.0 mb 0.00 in0.0 mm 0.00 in0.0 mm 0.02 in0.5 mm
09:15 AM 13.8°F-10.1°C 9.3°F-12.6°C 82% 3.0 mph WSW4.8 kmh WSW 8.0 mph12.9 kmh 30.19 in1022.4 mb 0.00 in0.0 mm 0.00 in0.0 mm 0.02 in0.5 mm
09:30 AM 14.2°F-9.9°C 9.7°F-12.4°C 82% 4.0 mph WSW6.4 kmh WSW 10.0 mph16.1 kmh 30.19 in1022.4 mb 0.00 in0.0 mm 0.00 in0.0 mm 0.02 in0.5 mm
09:45 AM 14.4°F-9.8°C 9.9°F-12.3°C 82% 5.0 mph SW8.0 kmh SW 10.0 mph16.1 kmh 30.19 in1022.4 mb 0.00 in0.0 mm 0.00 in0.0 mm 0.02 in0.5 mm
10:00 AM 15.1°F-9.4°C 10.6°F-11.9°C 82% 4.0 mph SW6.4 kmh SW 10.0 mph16.1 kmh 30.21 in1023.0 mb 0.00 in0.0 mm 0.00 in0.0 mm 0.02 in0.5 mm
10:15 AM 15.6°F-9.1°C 11.1°F-11.6°C 82% 5.0 mph WSW8.0 kmh WSW 10.0 mph16.1 kmh 30.22 in1023.4 mb 0.00 in0.0 mm 0.00 in0.0 mm 0.02 in0.5 mm
10:30 AM 16.2°F-8.8°C 11.6°F-11.3°C 82% 5.0 mph SW8.0 kmh SW 11.0 mph17.7 kmh 30.22 in1023.4 mb 0.00 in0.0 mm 0.00 in0.0 mm 0.02 in0.5 mm
10:45 AM 17.4°F-8.1°C 12.6°F-10.8°C 81% 5.0 mph SW8.0 kmh SW 9.0 mph14.5 kmh 30.22 in1023.4 mb 0.00 in0.0 mm 0.00 in0.0 mm 0.02 in0.5 mm
11:00 AM 18.3°F-7.6°C 13.2°F-10.4°C 80% 5.0 mph SW8.0 kmh SW 10.0 mph16.1 kmh 30.23 in1023.7 mb 0.00 in0.0 mm 0.00 in0.0 mm 0.02 in0.5 mm
11:15 AM 19.0°F-7.2°C 13.6°F-10.2°C 79% 4.0 mph SW6.4 kmh SW 9.0 mph14.5 kmh 30.23 in1023.7 mb 0.00 in0.0 mm 0.00 in0.0 mm 0.02 in0.5 mm
11:30 AM 18.3°F-7.6°C 12.6°F-10.8°C 78% 7.0 mph SW11.3 kmh SW 15.0 mph24.1 kmh 30.24 in1024.0 mb 0.00 in0.0 mm 0.00 in0.0 mm 0.02 in0.5 mm
11:45 AM 18.1°F-7.7°C 12.4°F-10.9°C 78% 8.0 mph WSW12.9 kmh WSW 14.0 mph22.5 kmh 30.25 in1024.4 mb 0.00 in0.0 mm 0.00 in0.0 mm 0.02 in0.5 mm
12:00 PM 18.3°F-7.6°C 12.0°F-11.1°C 76% 8.0 mph WSW12.9 kmh WSW 16.0 mph25.7 kmh 30.26 in1024.7 mb 0.00 in0.0 mm 0.00 in0.0 mm 0.02 in0.5 mm
12:15 PM 18.1°F-7.7°C 11.5°F-11.4°C 75% 7.0 mph WSW11.3 kmh WSW 17.0 mph27.4 kmh 30.26 in1024.7 mb 0.00 in0.0 mm 0.00 in0.0 mm 0.02 in0.5 mm
12:30 PM 18.9°F-7.3°C 12.2°F-11.0°C 75% 7.0 mph WSW11.3 kmh WSW 21.0 mph33.8 kmh 30.25 in1024.4 mb 0.01 in0.3 mm 0.04 in1.0 mm 0.01 in0.3 mm
12:45 PM 18.1°F-7.7°C 10.9°F-11.7°C 73% 10.0 mph WSW16.1 kmh WSW 17.0 mph27.4 kmh 30.25 in1024.4 mb 0.01 in0.3 mm 0.00 in0.0 mm 0.01 in0.3 mm
01:00 PM 18.0°F-7.8°C 11.1°F-11.6°C 74% 10.0 mph WSW16.1 kmh WSW 18.0 mph29.0 kmh 30.24 in1024.0 mb 0.01 in0.3 mm 0.00 in0.0 mm 0.01 in0.3 mm
01:15 PM 18.3°F-7.6°C 11.1°F-11.6°C 73% 9.0 mph WSW14.5 kmh WSW 19.0 mph30.6 kmh 30.23 in1023.7 mb 0.01 in0.3 mm 0.00 in0.0 mm 0.01 in0.3 mm
01:30 PM 18.9°F-7.3°C 11.3°F-11.5°C 72% 9.0 mph WSW14.5 kmh WSW 19.0 mph30.6 kmh 30.23 in1023.7 mb 0.00 in0.0 mm 0.00 in0.0 mm 0.01 in0.3 mm
01:45 PM 19.0°F-7.2°C 10.9°F-11.7°C 70% 9.0 mph WSW14.5 kmh WSW 16.0 mph25.7 kmh 30.23 in1023.7 mb 0.00 in0.0 mm 0.00 in0.0 mm 0.01 in0.3 mm
02:00 PM 19.8°F-6.8°C 11.6°F-11.3°C 70% 10.0 mph WSW16.1 kmh WSW 18.0 mph29.0 kmh 30.22 in1023.4 mb 0.00 in0.0 mm 0.00 in0.0 mm 0.01 in0.3 mm
02:15 PM 19.6°F-6.9°C 10.4°F-12.0°C 67% 10.0 mph WSW16.1 kmh WSW 19.0 mph30.6 kmh 30.21 in1023.0 mb 0.00 in0.0 mm 0.00 in0.0 mm 0.01 in0.3 mm
02:30 PM 19.8°F-6.8°C 10.6°F-11.9°C 67% 9.0 mph WSW14.5 kmh WSW 19.0 mph30.6 kmh 30.21 in1023.0 mb 0.00 in0.0 mm 0.00 in0.0 mm 0.01 in0.3 mm
02:45 PM 20.5°F-6.4°C 11.6°F-11.3°C 68% 9.0 mph WSW14.5 kmh WSW 17.0 mph27.4 kmh 30.21 in1023.0 mb 0.00 in0.0 mm 0.00 in0.0 mm 0.01 in0.3 mm
03:00 PM 20.1°F-6.6°C 10.6°F-11.9°C 66% 11.0 mph WSW17.7 kmh WSW 18.0 mph29.0 kmh 30.19 in1022.4 mb 0.00 in0.0 mm 0.00 in0.0 mm 0.01 in0.3 mm
03:15 PM 20.7°F-6.3°C 11.4°F-11.4°C 67% 9.0 mph W14.5 kmh W 15.0 mph24.1 kmh 30.19 in1022.4 mb 0.00 in0.0 mm 0.00 in0.0 mm 0.01 in0.3 mm
03:30 PM 21.0°F-6.1°C 11.4°F-11.4°C 66% 6.0 mph WSW9.7 kmh WSW 14.0 mph22.5 kmh 30.20 in1022.7 mb 0.00 in0.0 mm 0.00 in0.0 mm 0.01 in0.3 mm
03:45 PM 20.7°F-6.3°C 10.7°F-11.8°C 65% 8.0 mph WSW12.9 kmh WSW 17.0 mph27.4 kmh 30.19 in1022.4 mb 0.00 in0.0 mm 0.00 in0.0 mm 0.01 in0.3 mm
04:00 PM 20.7°F-6.3°C 10.7°F-11.8°C 65% 9.0 mph SW14.5 kmh SW 22.0 mph35.4 kmh 30.18 in1022.0 mb 0.00 in0.0 mm 0.00 in0.0 mm 0.01 in0.3 mm
04:15 PM 21.2°F-6.0°C 11.9°F-11.2°C 67% 7.0 mph WSW11.3 kmh WSW 17.0 mph27.4 kmh 30.18 in1022.0 mb 0.00 in0.0 mm 0.00 in0.0 mm 0.01 in0.3 mm
04:30 PM 20.7°F-6.3°C 11.4°F-11.4°C 67% 8.0 mph WSW12.9 kmh WSW 16.0 mph25.7 kmh 30.18 in1022.0 mb 0.00 in0.0 mm 0.00 in0.0 mm 0.01 in0.3 mm
04:45 PM 20.8°F-6.2°C 12.3°F-10.9°C 69% 7.0 mph WSW11.3 kmh WSW 16.0 mph25.7 kmh 30.18 in1022.0 mb 0.00 in0.0 mm 0.00 in0.0 mm 0.01 in0.3 mm
05:00 PM 20.8°F-6.2°C 12.6°F-10.8°C 70% 8.0 mph SW12.9 kmh SW 18.0 mph29.0 kmh 30.18 in1022.0 mb 0.00 in0.0 mm 0.00 in0.0 mm 0.01 in0.3 mm
05:15 PM 21.0°F-6.1°C 12.4°F-10.9°C 69% 8.0 mph WSW12.9 kmh WSW 16.0 mph25.7 kmh 30.18 in1022.0 mb 0.00 in0.0 mm 0.00 in0.0 mm 0.01 in0.3 mm
05:30 PM 20.8°F-6.2°C 12.6°F-10.8°C 70% 8.0 mph WSW12.9 kmh WSW 17.0 mph27.4 kmh 30.20 in1022.7 mb 0.00 in0.0 mm 0.00 in0.0 mm 0.01 in0.3 mm
05:45 PM 20.5°F-6.4°C 12.2°F-11.0°C 70% 8.0 mph WSW12.9 kmh WSW 17.0 mph27.4 kmh 30.20 in1022.7 mb 0.00 in0.0 mm 0.00 in0.0 mm 0.01 in0.3 mm
06:00 PM 20.1°F-6.6°C 12.5°F-10.8°C 72% 7.0 mph WSW11.3 kmh WSW 16.0 mph25.7 kmh 30.19 in1022.4 mb 0.00 in0.0 mm 0.00 in0.0 mm 0.01 in0.3 mm
06:15 PM 19.8°F-6.8°C 13.1°F-10.5°C 75% 6.0 mph SW9.7 kmh SW 15.0 mph24.1 kmh 30.19 in1022.4 mb 0.00 in0.0 mm 0.00 in0.0 mm 0.01 in0.3 mm
06:30 PM 19.2°F-7.1°C 13.8°F-10.1°C 79% 6.0 mph SW9.7 kmh SW 15.0 mph24.1 kmh 30.19 in1022.4 mb 0.00 in0.0 mm 0.00 in0.0 mm 0.01 in0.3 mm
06:45 PM 19.0°F-7.2°C 12.7°F-10.7°C 76% 6.0 mph WSW9.7 kmh WSW 17.0 mph27.4 kmh 30.19 in1022.4 mb 0.00 in0.0 mm 0.00 in0.0 mm 0.01 in0.3 mm
07:00 PM 18.9°F-7.3°C 12.8°F-10.7°C 77% 8.0 mph SW12.9 kmh SW 16.0 mph25.7 kmh 30.19 in1022.4 mb 0.00 in0.0 mm 0.00 in0.0 mm 0.01 in0.3 mm
07:15 PM 19.0°F-7.2°C 13.3°F-10.4°C 78% 7.0 mph SW11.3 kmh SW 16.0 mph25.7 kmh 30.20 in1022.7 mb 0.00 in0.0 mm 0.00 in0.0 mm 0.01 in0.3 mm
07:30 PM 19.2°F-7.1°C 13.8°F-10.1°C 79% 8.0 mph SW12.9 kmh SW 18.0 mph29.0 kmh 30.20 in1022.7 mb 0.00 in0.0 mm 0.00 in0.0 mm 0.01 in0.3 mm
07:45 PM 19.2°F-7.1°C 13.8°F-10.1°C 79% 7.0 mph WSW11.3 kmh WSW 14.0 mph22.5 kmh 30.20 in1022.7 mb 0.00 in0.0 mm 0.00 in0.0 mm 0.01 in0.3 mm
08:00 PM 19.6°F-6.9°C 13.8°F-10.1°C 78% 7.0 mph WSW11.3 kmh WSW 15.0 mph24.1 kmh 30.21 in1023.0 mb 0.00 in0.0 mm 0.00 in0.0 mm 0.01 in0.3 mm
08:15 PM 19.6°F-6.9°C 13.5°F-10.3°C 77% 6.0 mph WSW9.7 kmh WSW 16.0 mph25.7 kmh 30.21 in1023.0 mb 0.00 in0.0 mm 0.00 in0.0 mm 0.01 in0.3 mm
08:30 PM 19.8°F-6.8°C 13.4°F-10.3°C 76% 7.0 mph WSW11.3 kmh WSW 15.0 mph24.1 kmh 30.21 in1023.0 mb 0.00 in0.0 mm 0.00 in0.0 mm 0.01 in0.3 mm
08:45 PM 19.9°F-6.7°C 13.0°F-10.6°C 74% 9.0 mph WSW14.5 kmh WSW 18.0 mph29.0 kmh 30.21 in1023.0 mb 0.00 in0.0 mm 0.00 in0.0 mm 0.01 in0.3 mm
09:00 PM 19.9°F-6.7°C 13.3°F-10.4°C 75% 6.0 mph SW9.7 kmh SW 15.0 mph24.1 kmh 30.20 in1022.7 mb 0.00 in0.0 mm 0.00 in0.0 mm 0.01 in0.3 mm
09:15 PM 19.9°F-6.7°C 13.0°F-10.6°C 74% 6.0 mph WSW9.7 kmh WSW 13.0 mph20.9 kmh 30.20 in1022.7 mb 0.00 in0.0 mm 0.00 in0.0 mm 0.01 in0.3 mm
09:30 PM 19.9°F-6.7°C 13.3°F-10.4°C 75% 5.0 mph SW8.0 kmh SW 14.0 mph22.5 kmh 30.20 in1022.7 mb 0.00 in0.0 mm 0.00 in0.0 mm 0.01 in0.3 mm
09:45 PM 20.1°F-6.6°C 13.2°F-10.4°C 74% 6.0 mph WSW9.7 kmh WSW 13.0 mph20.9 kmh 30.20 in1022.7 mb 0.00 in0.0 mm 0.00 in0.0 mm 0.01 in0.3 mm
10:00 PM 20.1°F-6.6°C 12.8°F-10.7°C 73% 5.0 mph SW8.0 kmh SW 11.0 mph17.7 kmh 30.20 in1022.7 mb 0.00 in0.0 mm 0.00 in0.0 mm 0.01 in0.3 mm
10:15 PM 20.1°F-6.6°C 12.5°F-10.8°C 72% 4.0 mph WSW6.4 kmh WSW 11.0 mph17.7 kmh 30.20 in1022.7 mb 0.00 in0.0 mm 0.00 in0.0 mm 0.01 in0.3 mm
10:30 PM 20.3°F-6.5°C 12.7°F-10.7°C 72% 4.0 mph SW6.4 kmh SW 11.0 mph17.7 kmh 30.20 in1022.7 mb 0.00 in0.0 mm 0.00 in0.0 mm 0.01 in0.3 mm
10:45 PM 20.5°F-6.4°C 12.6°F-10.8°C 71% 5.0 mph WSW8.0 kmh WSW 11.0 mph17.7 kmh 30.20 in1022.7 mb 0.00 in0.0 mm 0.00 in0.0 mm 0.01 in0.3 mm
11:00 PM 20.7°F-6.3°C 12.4°F-10.9°C 70% 5.0 mph SW8.0 kmh SW 12.0 mph19.3 kmh 30.20 in1022.7 mb 0.00 in0.0 mm 0.00 in0.0 mm 0.01 in0.3 mm
11:15 PM 20.8°F-6.2°C 12.9°F-10.6°C 71% 6.0 mph WSW9.7 kmh WSW 12.0 mph19.3 kmh 30.20 in1022.7 mb 0.00 in0.0 mm 0.00 in0.0 mm 0.01 in0.3 mm
11:30 PM 21.0°F-6.1°C 13.4°F-10.3°C 72% 5.0 mph WSW8.0 kmh WSW 11.0 mph17.7 kmh 30.20 in1022.7 mb 0.00 in0.0 mm 0.00 in0.0 mm 0.01 in0.3 mm
11:45 PM 21.0°F-6.1°C 14.0°F-10.0°C 74% 6.0 mph WSW9.7 kmh WSW 13.0 mph20.9 kmh 30.20 in1022.7 mb 0.00 in0.0 mm 0.00 in0.0 mm 0.01 in0.3 mm